sensor_id;sensor_type;location;lat;lon;timestamp;P1;durP1;ratioP1;P2;durP2;ratioP2
24407;SDS011;12542;50.924;4.516;2022-09-24T00:00:57;28.15;;;20.20;;
24407;SDS011;12542;50.924;4.516;2022-09-24T00:03:24;31.08;;;19.85;;
24407;SDS011;12542;50.924;4.516;2022-09-24T00:05:51;30.50;;;21.00;;
24407;SDS011;12542;50.924;4.516;2022-09-24T00:08:17;29.83;;;20.45;;
24407;SDS011;12542;50.924;4.516;2022-09-24T00:10:45;31.10;;;20.20;;
24407;SDS011;12542;50.924;4.516;2022-09-24T00:13:13;31.63;;;20.40;;
24407;SDS011;12542;50.924;4.516;2022-09-24T00:15:42;29.75;;;18.98;;
24407;SDS011;12542;50.924;4.516;2022-09-24T00:18:11;26.85;;;17.65;;
24407;SDS011;12542;50.924;4.516;2022-09-24T00:20:37;32.45;;;19.65;;
24407;SDS011;12542;50.924;4.516;2022-09-24T00:23:04;28.90;;;18.23;;
24407;SDS011;12542;50.924;4.516;2022-09-24T00:25:32;29.88;;;18.80;;
24407;SDS011;12542;50.924;4.516;2022-09-24T00:28:16;23.80;;;15.75;;
24407;SDS011;12542;50.924;4.516;2022-09-24T00:30:44;21.98;;;14.85;;
24407;SDS011;12542;50.924;4.516;2022-09-24T00:33:10;23.80;;;14.68;;
24407;SDS011;12542;50.924;4.516;2022-09-24T00:35:37;20.10;;;13.05;;
24407;SDS011;12542;50.924;4.516;2022-09-24T00:38:05;18.58;;;12.88;;
24407;SDS011;12542;50.924;4.516;2022-09-24T00:40:31;18.38;;;12.50;;
24407;SDS011;12542;50.924;4.516;2022-09-24T00:43:00;20.05;;;12.73;;
24407;SDS011;12542;50.924;4.516;2022-09-24T00:45:28;15.55;;;10.80;;
24407;SDS011;12542;50.924;4.516;2022-09-24T00:47:55;14.43;;;10.82;;
24407;SDS011;12542;50.924;4.516;2022-09-24T00:50:28;16.85;;;10.55;;
24407;SDS011;12542;50.924;4.516;2022-09-24T00:52:58;14.48;;;9.63;;
24407;SDS011;12542;50.924;4.516;2022-09-24T00:55:28;16.35;;;10.13;;
24407;SDS011;12542;50.924;4.516;2022-09-24T00:57:56;16.73;;;10.18;;
24407;SDS011;12542;50.924;4.516;2022-09-24T01:00:24;19.38;;;9.50;;
24407;SDS011;12542;50.924;4.516;2022-09-24T01:02:53;15.38;;;9.80;;
24407;SDS011;12542;50.924;4.516;2022-09-24T01:05:26;15.75;;;10.50;;
24407;SDS011;12542;50.924;4.516;2022-09-24T01:07:52;16.60;;;11.23;;
24407;SDS011;12542;50.924;4.516;2022-09-24T01:10:19;16.95;;;12.57;;
24407;SDS011;12542;50.924;4.516;2022-09-24T01:19:22;19.60;;;13.00;;
24407;SDS011;12542;50.924;4.516;2022-09-24T01:25:00;19.20;;;11.57;;
24407;SDS011;12542;50.924;4.516;2022-09-24T01:27:41;21.45;;;12.63;;
24407;SDS011;12542;50.924;4.516;2022-09-24T01:30:29;20.27;;;12.40;;
24407;SDS011;12542;50.924;4.516;2022-09-24T01:33:02;20.63;;;12.15;;
24407;SDS011;12542;50.924;4.516;2022-09-24T01:38:01;18.65;;;12.13;;
24407;SDS011;12542;50.924;4.516;2022-09-24T01:40:30;19.95;;;12.43;;
24407;SDS011;12542;50.924;4.516;2022-09-24T01:42:56;19.92;;;12.00;;
24407;SDS011;12542;50.924;4.516;2022-09-24T01:45:28;18.58;;;11.77;;
24407;SDS011;12542;50.924;4.516;2022-09-24T01:47:56;20.33;;;13.38;;
24407;SDS011;12542;50.924;4.516;2022-09-24T01:50:27;21.30;;;12.43;;
24407;SDS011;12542;50.924;4.516;2022-09-24T01:52:57;19.65;;;13.40;;
24407;SDS011;12542;50.924;4.516;2022-09-24T01:55:36;21.90;;;13.68;;
24407;SDS011;12542;50.924;4.516;2022-09-24T01:58:15;19.33;;;13.00;;
24407;SDS011;12542;50.924;4.516;2022-09-24T02:00:46;20.60;;;14.48;;
24407;SDS011;12542;50.924;4.516;2022-09-24T02:03:20;24.92;;;14.35;;
24407;SDS011;12542;50.924;4.516;2022-09-24T02:05:55;23.38;;;14.60;;
24407;SDS011;12542;50.924;4.516;2022-09-24T02:08:36;23.65;;;14.20;;
24407;SDS011;12542;50.924;4.516;2022-09-24T02:11:05;22.83;;;14.98;;
24407;SDS011;12542;50.924;4.516;2022-09-24T02:13:40;23.88;;;14.77;;
24407;SDS011;12542;50.924;4.516;2022-09-24T02:16:48;27.08;;;15.63;;
24407;SDS011;12542;50.924;4.516;2022-09-24T02:19:16;24.30;;;15.40;;
24407;SDS011;12542;50.924;4.516;2022-09-24T02:21:45;24.25;;;16.00;;
24407;SDS011;12542;50.924;4.516;2022-09-24T02:24:18;26.83;;;15.30;;
24407;SDS011;12542;50.924;4.516;2022-09-24T02:26:56;26.73;;;15.35;;
24407;SDS011;12542;50.924;4.516;2022-09-24T02:29:23;22.92;;;15.95;;
24407;SDS011;12542;50.924;4.516;2022-09-24T02:31:48;26.50;;;16.83;;
24407;SDS011;12542;50.924;4.516;2022-09-24T02:34:19;24.17;;;14.98;;
24407;SDS011;12542;50.924;4.516;2022-09-24T02:36:54;22.73;;;14.73;;
24407;SDS011;12542;50.924;4.516;2022-09-24T02:39:23;25.00;;;15.68;;
24407;SDS011;12542;50.924;4.516;2022-09-24T02:41:49;26.10;;;16.60;;
24407;SDS011;12542;50.924;4.516;2022-09-24T02:44:16;25.95;;;16.05;;
24407;SDS011;12542;50.924;4.516;2022-09-24T02:46:43;22.20;;;15.15;;
24407;SDS011;12542;50.924;4.516;2022-09-24T02:49:10;27.38;;;16.55;;
24407;SDS011;12542;50.924;4.516;2022-09-24T02:51:37;26.85;;;15.60;;
24407;SDS011;12542;50.924;4.516;2022-09-24T02:54:03;23.92;;;15.02;;
24407;SDS011;12542;50.924;4.516;2022-09-24T02:56:29;25.08;;;15.20;;
24407;SDS011;12542;50.924;4.516;2022-09-24T02:58:55;24.30;;;16.15;;
24407;SDS011;12542;50.924;4.516;2022-09-24T03:01:21;26.55;;;15.55;;
24407;SDS011;12542;50.924;4.516;2022-09-24T03:03:47;26.17;;;15.65;;
24407;SDS011;12542;50.924;4.516;2022-09-24T03:06:13;25.23;;;16.50;;
24407;SDS011;12542;50.924;4.516;2022-09-24T03:08:40;24.05;;;15.10;;
24407;SDS011;12542;50.924;4.516;2022-09-24T03:11:07;23.67;;;14.77;;
24407;SDS011;12542;50.924;4.516;2022-09-24T03:13:35;23.77;;;15.00;;
24407;SDS011;12542;50.924;4.516;2022-09-24T03:16:01;24.80;;;15.77;;
24407;SDS011;12542;50.924;4.516;2022-09-24T03:18:28;24.20;;;14.80;;
24407;SDS011;12542;50.924;4.516;2022-09-24T03:20:54;24.80;;;15.10;;
24407;SDS011;12542;50.924;4.516;2022-09-24T03:23:24;25.85;;;14.63;;
24407;SDS011;12542;50.924;4.516;2022-09-24T03:25:50;21.52;;;14.13;;
24407;SDS011;12542;50.924;4.516;2022-09-24T03:28:15;22.95;;;13.82;;
24407;SDS011;12542;50.924;4.516;2022-09-24T03:30:42;21.73;;;13.18;;
24407;SDS011;12542;50.924;4.516;2022-09-24T03:38:35;20.25;;;12.35;;
24407;SDS011;12542;50.924;4.516;2022-09-24T03:41:03;19.30;;;12.18;;
24407;SDS011;12542;50.924;4.516;2022-09-24T03:43:30;19.33;;;11.50;;
24407;SDS011;12542;50.924;4.516;2022-09-24T03:45:57;22.73;;;11.63;;
24407;SDS011;12542;50.924;4.516;2022-09-24T03:48:23;18.23;;;12.35;;
24407;SDS011;12542;50.924;4.516;2022-09-24T03:50:49;19.58;;;12.50;;
24407;SDS011;12542;50.924;4.516;2022-09-24T03:53:16;27.30;;;15.35;;
24407;SDS011;12542;50.924;4.516;2022-09-24T03:55:43;25.10;;;13.90;;
24407;SDS011;12542;50.924;4.516;2022-09-24T03:58:19;24.48;;;14.32;;
24407;SDS011;12542;50.924;4.516;2022-09-24T04:00:45;22.58;;;14.82;;
24407;SDS011;12542;50.924;4.516;2022-09-24T04:03:11;23.85;;;14.70;;
24407;SDS011;12542;50.924;4.516;2022-09-24T04:05:36;22.85;;;14.80;;
24407;SDS011;12542;50.924;4.516;2022-09-24T04:08:02;25.95;;;15.23;;
24407;SDS011;12542;50.924;4.516;2022-09-24T04:10:29;24.33;;;15.55;;
24407;SDS011;12542;50.924;4.516;2022-09-24T04:12:56;25.30;;;15.60;;
24407;SDS011;12542;50.924;4.516;2022-09-24T04:15:22;25.92;;;15.77;;
24407;SDS011;12542;50.924;4.516;2022-09-24T04:17:56;26.75;;;15.40;;
24407;SDS011;12542;50.924;4.516;2022-09-24T04:20:24;23.90;;;15.80;;
24407;SDS011;12542;50.924;4.516;2022-09-24T04:22:52;27.10;;;14.70;;
24407;SDS011;12542;50.924;4.516;2022-09-24T04:25:20;24.98;;;15.40;;
24407;SDS011;12542;50.924;4.516;2022-09-24T04:27:51;24.70;;;15.30;;
24407;SDS011;12542;50.924;4.516;2022-09-24T04:30:22;25.30;;;16.02;;
24407;SDS011;12542;50.924;4.516;2022-09-24T04:32:49;26.50;;;15.77;;
24407;SDS011;12542;50.924;4.516;2022-09-24T04:35:19;23.15;;;14.57;;
24407;SDS011;12542;50.924;4.516;2022-09-24T04:37:46;23.67;;;14.82;;
24407;SDS011;12542;50.924;4.516;2022-09-24T04:40:12;28.70;;;15.27;;
24407;SDS011;12542;50.924;4.516;2022-09-24T04:42:40;23.38;;;15.35;;
24407;SDS011;12542;50.924;4.516;2022-09-24T04:45:07;23.27;;;14.85;;
24407;SDS011;12542;50.924;4.516;2022-09-24T04:47:34;24.73;;;15.95;;
24407;SDS011;12542;50.924;4.516;2022-09-24T04:50:04;23.67;;;14.85;;
24407;SDS011;12542;50.924;4.516;2022-09-24T04:52:31;24.58;;;15.85;;
24407;SDS011;12542;50.924;4.516;2022-09-24T04:54:58;23.27;;;15.30;;
24407;SDS011;12542;50.924;4.516;2022-09-24T04:57:24;27.27;;;16.45;;
24407;SDS011;12542;50.924;4.516;2022-09-24T04:59:51;26.75;;;15.68;;
24407;SDS011;12542;50.924;4.516;2022-09-24T05:02:17;23.90;;;15.00;;
24407;SDS011;12542;50.924;4.516;2022-09-24T05:04:43;26.48;;;15.07;;
24407;SDS011;12542;50.924;4.516;2022-09-24T05:07:09;27.45;;;15.90;;
24407;SDS011;12542;50.924;4.516;2022-09-24T05:09:35;26.58;;;16.27;;
24407;SDS011;12542;50.924;4.516;2022-09-24T05:12:02;27.00;;;15.98;;
24407;SDS011;12542;50.924;4.516;2022-09-24T05:14:28;27.77;;;15.57;;
24407;SDS011;12542;50.924;4.516;2022-09-24T05:16:55;26.30;;;15.88;;
24407;SDS011;12542;50.924;4.516;2022-09-24T05:19:21;27.25;;;15.77;;
24407;SDS011;12542;50.924;4.516;2022-09-24T05:21:46;26.42;;;16.65;;
24407;SDS011;12542;50.924;4.516;2022-09-24T05:24:12;26.27;;;15.25;;
24407;SDS011;12542;50.924;4.516;2022-09-24T05:26:38;28.85;;;16.83;;
24407;SDS011;12542;50.924;4.516;2022-09-24T05:29:22;26.70;;;16.30;;
24407;SDS011;12542;50.924;4.516;2022-09-24T05:31:48;28.63;;;16.77;;
24407;SDS011;12542;50.924;4.516;2022-09-24T05:34:13;27.42;;;17.60;;
24407;SDS011;12542;50.924;4.516;2022-09-24T05:36:39;27.85;;;17.95;;
24407;SDS011;12542;50.924;4.516;2022-09-24T05:39:07;30.67;;;18.20;;
24407;SDS011;12542;50.924;4.516;2022-09-24T05:41:35;27.73;;;16.85;;
24407;SDS011;12542;50.924;4.516;2022-09-24T05:44:01;30.10;;;18.33;;
24407;SDS011;12542;50.924;4.516;2022-09-24T05:46:27;28.65;;;16.70;;
24407;SDS011;12542;50.924;4.516;2022-09-24T05:48:53;30.08;;;18.02;;
24407;SDS011;12542;50.924;4.516;2022-09-24T05:51:19;29.55;;;17.13;;
24407;SDS011;12542;50.924;4.516;2022-09-24T05:53:45;28.88;;;16.85;;
24407;SDS011;12542;50.924;4.516;2022-09-24T05:56:14;32.50;;;17.65;;
24407;SDS011;12542;50.924;4.516;2022-09-24T05:58:40;29.02;;;16.98;;
24407;SDS011;12542;50.924;4.516;2022-09-24T06:01:05;26.52;;;16.33;;
24407;SDS011;12542;50.924;4.516;2022-09-24T06:03:31;25.73;;;17.25;;
24407;SDS011;12542;50.924;4.516;2022-09-24T06:05:57;26.85;;;16.92;;
24407;SDS011;12542;50.924;4.516;2022-09-24T06:08:26;30.63;;;17.42;;
24407;SDS011;12542;50.924;4.516;2022-09-24T06:10:57;26.20;;;16.45;;
24407;SDS011;12542;50.924;4.516;2022-09-24T06:13:27;29.45;;;17.02;;
24407;SDS011;12542;50.924;4.516;2022-09-24T06:15:58;27.83;;;16.63;;
24407;SDS011;12542;50.924;4.516;2022-09-24T06:18:29;26.75;;;16.40;;
24407;SDS011;12542;50.924;4.516;2022-09-24T06:20:59;28.83;;;18.15;;
24407;SDS011;12542;50.924;4.516;2022-09-24T06:23:29;33.63;;;17.50;;
24407;SDS011;12542;50.924;4.516;2022-09-24T06:25:58;29.30;;;17.98;;
24407;SDS011;12542;50.924;4.516;2022-09-24T06:28:24;26.95;;;17.20;;
24407;SDS011;12542;50.924;4.516;2022-09-24T06:30:50;30.15;;;17.27;;
24407;SDS011;12542;50.924;4.516;2022-09-24T06:33:17;34.97;;;17.52;;
24407;SDS011;12542;50.924;4.516;2022-09-24T06:35:44;32.80;;;18.05;;
24407;SDS011;12542;50.924;4.516;2022-09-24T06:38:11;33.85;;;16.58;;
24407;SDS011;12542;50.924;4.516;2022-09-24T06:40:38;29.27;;;17.63;;
24407;SDS011;12542;50.924;4.516;2022-09-24T06:43:08;28.83;;;17.17;;
24407;SDS011;12542;50.924;4.516;2022-09-24T06:45:35;29.50;;;16.77;;
24407;SDS011;12542;50.924;4.516;2022-09-24T06:48:01;27.80;;;17.38;;
24407;SDS011;12542;50.924;4.516;2022-09-24T06:50:29;26.35;;;15.98;;
24407;SDS011;12542;50.924;4.516;2022-09-24T06:52:57;27.05;;;15.50;;
24407;SDS011;12542;50.924;4.516;2022-09-24T06:55:23;27.27;;;14.93;;
24407;SDS011;12542;50.924;4.516;2022-09-24T06:57:49;28.00;;;16.33;;
24407;SDS011;12542;50.924;4.516;2022-09-24T07:00:24;24.48;;;15.82;;
24407;SDS011;12542;50.924;4.516;2022-09-24T07:02:50;29.35;;;16.10;;
24407;SDS011;12542;50.924;4.516;2022-09-24T07:05:16;28.75;;;16.35;;
24407;SDS011;12542;50.924;4.516;2022-09-24T07:07:41;28.10;;;17.17;;
24407;SDS011;12542;50.924;4.516;2022-09-24T07:10:08;28.40;;;17.17;;
24407;SDS011;12542;50.924;4.516;2022-09-24T07:12:34;29.00;;;16.65;;
24407;SDS011;12542;50.924;4.516;2022-09-24T07:15:00;25.08;;;15.57;;
24407;SDS011;12542;50.924;4.516;2022-09-24T07:17:27;27.67;;;16.65;;
24407;SDS011;12542;50.924;4.516;2022-09-24T07:19:53;28.08;;;16.63;;
24407;SDS011;12542;50.924;4.516;2022-09-24T07:22:20;24.25;;;15.40;;
24407;SDS011;12542;50.924;4.516;2022-09-24T07:24:46;28.90;;;15.85;;
24407;SDS011;12542;50.924;4.516;2022-09-24T07:27:13;26.33;;;15.68;;
24407;SDS011;12542;50.924;4.516;2022-09-24T07:29:39;27.95;;;15.85;;
24407;SDS011;12542;50.924;4.516;2022-09-24T07:32:05;27.58;;;16.92;;
24407;SDS011;12542;50.924;4.516;2022-09-24T07:34:32;28.98;;;16.42;;
24407;SDS011;12542;50.924;4.516;2022-09-24T07:36:58;29.67;;;17.63;;
24407;SDS011;12542;50.924;4.516;2022-09-24T07:39:25;35.60;;;17.65;;
24407;SDS011;12542;50.924;4.516;2022-09-24T07:41:53;25.75;;;16.10;;
24407;SDS011;12542;50.924;4.516;2022-09-24T07:44:20;24.50;;;15.32;;
24407;SDS011;12542;50.924;4.516;2022-09-24T07:46:47;22.80;;;14.50;;
24407;SDS011;12542;50.924;4.516;2022-09-24T07:49:14;25.85;;;15.68;;
24407;SDS011;12542;50.924;4.516;2022-09-24T07:51:39;24.65;;;15.25;;
24407;SDS011;12542;50.924;4.516;2022-09-24T07:54:05;30.35;;;15.90;;
24407;SDS011;12542;50.924;4.516;2022-09-24T07:56:32;28.77;;;16.67;;
24407;SDS011;12542;50.924;4.516;2022-09-24T07:58:58;26.80;;;17.17;;
24407;SDS011;12542;50.924;4.516;2022-09-24T08:01:23;25.92;;;15.98;;
24407;SDS011;12542;50.924;4.516;2022-09-24T08:03:51;26.42;;;15.65;;
24407;SDS011;12542;50.924;4.516;2022-09-24T08:06:18;25.08;;;15.10;;
24407;SDS011;12542;50.924;4.516;2022-09-24T08:08:48;31.50;;;16.55;;
24407;SDS011;12542;50.924;4.516;2022-09-24T08:11:14;25.63;;;14.98;;
24407;SDS011;12542;50.924;4.516;2022-09-24T08:13:41;29.35;;;16.88;;
24407;SDS011;12542;50.924;4.516;2022-09-24T08:16:07;30.80;;;16.88;;
24407;SDS011;12542;50.924;4.516;2022-09-24T08:18:33;31.73;;;16.48;;
24407;SDS011;12542;50.924;4.516;2022-09-24T08:21:02;28.60;;;16.20;;
24407;SDS011;12542;50.924;4.516;2022-09-24T08:23:36;25.73;;;16.20;;
24407;SDS011;12542;50.924;4.516;2022-09-24T08:26:03;27.70;;;16.10;;
24407;SDS011;12542;50.924;4.516;2022-09-24T08:28:30;25.67;;;15.20;;
24407;SDS011;12542;50.924;4.516;2022-09-24T08:30:59;23.05;;;15.43;;
24407;SDS011;12542;50.924;4.516;2022-09-24T08:33:27;24.73;;;15.25;;
24407;SDS011;12542;50.924;4.516;2022-09-24T08:35:53;27.40;;;14.60;;
24407;SDS011;12542;50.924;4.516;2022-09-24T08:38:19;24.10;;;14.77;;
24407;SDS011;12542;50.924;4.516;2022-09-24T08:41:14;22.98;;;14.70;;
24407;SDS011;12542;50.924;4.516;2022-09-24T08:46:31;24.20;;;14.88;;
24407;SDS011;12542;50.924;4.516;2022-09-24T08:49:31;21.30;;;13.68;;
24407;SDS011;12542;50.924;4.516;2022-09-24T08:52:03;20.38;;;13.57;;
24407;SDS011;12542;50.924;4.516;2022-09-24T08:54:38;23.45;;;14.90;;
24407;SDS011;12542;50.924;4.516;2022-09-24T08:57:09;22.85;;;14.55;;
24407;SDS011;12542;50.924;4.516;2022-09-24T08:59:38;21.65;;;14.73;;
24407;SDS011;12542;50.924;4.516;2022-09-24T09:05:07;20.48;;;14.00;;
24407;SDS011;12542;50.924;4.516;2022-09-24T09:07:59;24.67;;;14.20;;
24407;SDS011;12542;50.924;4.516;2022-09-24T09:10:31;24.52;;;13.95;;
24407;SDS011;12542;50.924;4.516;2022-09-24T09:13:03;21.42;;;13.90;;
24407;SDS011;12542;50.924;4.516;2022-09-24T09:15:40;23.15;;;13.65;;
24407;SDS011;12542;50.924;4.516;2022-09-24T09:18:17;23.33;;;13.73;;
24407;SDS011;12542;50.924;4.516;2022-09-24T09:20:55;23.58;;;13.70;;
24407;SDS011;12542;50.924;4.516;2022-09-24T09:25:59;24.63;;;14.20;;
24407;SDS011;12542;50.924;4.516;2022-09-24T09:28:25;22.83;;;14.18;;
24407;SDS011;12542;50.924;4.516;2022-09-24T09:36:34;25.23;;;13.95;;
24407;SDS011;12542;50.924;4.516;2022-09-24T09:39:17;25.57;;;14.57;;
24407;SDS011;12542;50.924;4.516;2022-09-24T09:45:00;27.13;;;14.85;;
24407;SDS011;12542;50.924;4.516;2022-09-24T09:48:10;26.27;;;15.98;;
24407;SDS011;12542;50.924;4.516;2022-09-24T09:53:00;29.52;;;17.10;;
24407;SDS011;12542;50.924;4.516;2022-09-24T09:55:29;25.48;;;15.85;;
24407;SDS011;12542;50.924;4.516;2022-09-24T10:00:39;24.92;;;15.40;;
24407;SDS011;12542;50.924;4.516;2022-09-24T10:03:23;26.48;;;15.65;;
24407;SDS011;12542;50.924;4.516;2022-09-24T10:06:02;26.02;;;14.70;;
24407;SDS011;12542;50.924;4.516;2022-09-24T10:08:30;23.30;;;14.63;;
24407;SDS011;12542;50.924;4.516;2022-09-24T10:10:57;25.75;;;15.25;;
24407;SDS011;12542;50.924;4.516;2022-09-24T10:13:25;31.63;;;14.93;;
24407;SDS011;12542;50.924;4.516;2022-09-24T10:18:31;25.35;;;15.43;;
24407;SDS011;12542;50.924;4.516;2022-09-24T10:21:22;26.05;;;14.05;;
24407;SDS011;12542;50.924;4.516;2022-09-24T10:23:58;26.27;;;15.82;;
24407;SDS011;12542;50.924;4.516;2022-09-24T10:26:33;26.17;;;15.10;;
24407;SDS011;12542;50.924;4.516;2022-09-24T10:29:03;18.85;;;12.27;;
24407;SDS011;12542;50.924;4.516;2022-09-24T10:34:20;23.50;;;12.27;;
24407;SDS011;12542;50.924;4.516;2022-09-24T10:36:50;20.92;;;12.13;;
24407;SDS011;12542;50.924;4.516;2022-09-24T10:39:19;19.75;;;11.98;;
24407;SDS011;12542;50.924;4.516;2022-09-24T10:41:46;21.10;;;13.70;;
24407;SDS011;12542;50.924;4.516;2022-09-24T10:44:13;21.48;;;13.23;;
24407;SDS011;12542;50.924;4.516;2022-09-24T10:52:41;23.25;;;14.43;;
24407;SDS011;12542;50.924;4.516;2022-09-24T10:58:26;23.67;;;14.15;;
24407;SDS011;12542;50.924;4.516;2022-09-24T11:03:54;23.33;;;13.88;;
24407;SDS011;12542;50.924;4.516;2022-09-24T11:09:40;22.73;;;13.02;;
24407;SDS011;12542;50.924;4.516;2022-09-24T11:12:27;19.90;;;11.48;;
24407;SDS011;12542;50.924;4.516;2022-09-24T11:18:25;16.73;;;11.05;;
24407;SDS011;12542;50.924;4.516;2022-09-24T11:21:07;18.90;;;11.00;;
24407;SDS011;12542;50.924;4.516;2022-09-24T11:26:40;18.52;;;10.50;;
24407;SDS011;12542;50.924;4.516;2022-09-24T11:29:32;16.15;;;9.85;;
24407;SDS011;12542;50.924;4.516;2022-09-24T11:32:17;14.73;;;9.63;;
24407;SDS011;12542;50.924;4.516;2022-09-24T11:40:10;20.50;;;10.32;;
24407;SDS011;12542;50.924;4.516;2022-09-24T11:46:10;17.35;;;10.43;;
24407;SDS011;12542;50.924;4.516;2022-09-24T11:55:49;25.70;;;12.55;;
24407;SDS011;12542;50.924;4.516;2022-09-24T11:57:52;18.00;;;10.48;;
24407;SDS011;12542;50.924;4.516;2022-09-24T12:04:13;15.38;;;10.35;;
24407;SDS011;12542;50.924;4.516;2022-09-24T12:06:19;18.15;;;10.30;;
24407;SDS011;12542;50.924;4.516;2022-09-24T12:08:55;17.75;;;10.73;;
24407;SDS011;12542;50.924;4.516;2022-09-24T12:11:46;20.02;;;10.50;;
24407;SDS011;12542;50.924;4.516;2022-09-24T12:14:20;19.20;;;11.20;;
24407;SDS011;12542;50.924;4.516;2022-09-24T12:16:55;18.33;;;11.47;;
24407;SDS011;12542;50.924;4.516;2022-09-24T12:19:30;19.13;;;11.27;;
24407;SDS011;12542;50.924;4.516;2022-09-24T12:22:00;19.15;;;11.30;;
24407;SDS011;12542;50.924;4.516;2022-09-24T12:24:51;18.05;;;11.18;;
24407;SDS011;12542;50.924;4.516;2022-09-24T12:27:35;22.17;;;12.95;;
24407;SDS011;12542;50.924;4.516;2022-09-24T12:33:31;24.55;;;12.52;;
24407;SDS011;12542;50.924;4.516;2022-09-24T12:36:22;25.05;;;13.05;;
24407;SDS011;12542;50.924;4.516;2022-09-24T12:39:32;23.52;;;14.05;;
24407;SDS011;12542;50.924;4.516;2022-09-24T12:42:05;25.10;;;13.90;;
24407;SDS011;12542;50.924;4.516;2022-09-24T12:44:44;22.67;;;13.05;;
24407;SDS011;12542;50.924;4.516;2022-09-24T12:47:19;21.05;;;12.95;;
24407;SDS011;12542;50.924;4.516;2022-09-24T12:52:26;21.63;;;12.25;;
24407;SDS011;12542;50.924;4.516;2022-09-24T12:55:02;24.85;;;13.43;;
24407;SDS011;12542;50.924;4.516;2022-09-24T12:57:36;25.48;;;13.20;;
24407;SDS011;12542;50.924;4.516;2022-09-24T13:02:57;23.73;;;15.27;;
24407;SDS011;12542;50.924;4.516;2022-09-24T13:05:31;23.67;;;17.05;;
24407;SDS011;12542;50.924;4.516;2022-09-24T13:10:35;29.75;;;19.52;;
24407;SDS011;12542;50.924;4.516;2022-09-24T13:13:02;30.38;;;16.83;;
24407;SDS011;12542;50.924;4.516;2022-09-24T13:15:45;25.60;;;15.75;;
24407;SDS011;12542;50.924;4.516;2022-09-24T13:18:21;22.27;;;14.40;;
24407;SDS011;12542;50.924;4.516;2022-09-24T13:21:07;26.63;;;18.60;;
24407;SDS011;12542;50.924;4.516;2022-09-24T13:23:52;25.35;;;16.42;;
24407;SDS011;12542;50.924;4.516;2022-09-24T13:28:58;64.30;;;34.03;;
24407;SDS011;12542;50.924;4.516;2022-09-24T13:31:34;105.85;;;54.97;;
24407;SDS011;12542;50.924;4.516;2022-09-24T13:34:17;38.50;;;21.50;;
24407;SDS011;12542;50.924;4.516;2022-09-24T13:39:47;27.02;;;15.93;;
24407;SDS011;12542;50.924;4.516;2022-09-24T13:42:18;24.33;;;14.88;;
24407;SDS011;12542;50.924;4.516;2022-09-24T13:45:10;22.10;;;14.30;;
24407;SDS011;12542;50.924;4.516;2022-09-24T13:47:46;22.55;;;14.77;;
24407;SDS011;12542;50.924;4.516;2022-09-24T13:50:28;28.42;;;17.00;;
24407;SDS011;12542;50.924;4.516;2022-09-24T13:55:28;24.80;;;17.20;;
24407;SDS011;12542;50.924;4.516;2022-09-24T13:57:55;23.38;;;16.15;;
24407;SDS011;12542;50.924;4.516;2022-09-24T14:00:28;27.00;;;17.13;;
24407;SDS011;12542;50.924;4.516;2022-09-24T14:03:02;27.63;;;17.17;;
24407;SDS011;12542;50.924;4.516;2022-09-24T14:05:41;27.42;;;16.02;;
24407;SDS011;12542;50.924;4.516;2022-09-24T14:08:17;24.80;;;16.02;;
24407;SDS011;12542;50.924;4.516;2022-09-24T14:10:46;27.58;;;17.50;;
24407;SDS011;12542;50.924;4.516;2022-09-24T14:13:16;25.05;;;17.05;;
24407;SDS011;12542;50.924;4.516;2022-09-24T14:18:24;25.98;;;17.75;;
24407;SDS011;12542;50.924;4.516;2022-09-24T14:20:56;25.48;;;17.83;;
24407;SDS011;12542;50.924;4.516;2022-09-24T14:23:41;26.70;;;18.33;;
24407;SDS011;12542;50.924;4.516;2022-09-24T14:26:24;28.77;;;19.10;;
24407;SDS011;12542;50.924;4.516;2022-09-24T14:28:50;23.90;;;17.85;;
24407;SDS011;12542;50.924;4.516;2022-09-24T14:31:18;26.27;;;18.40;;
24407;SDS011;12542;50.924;4.516;2022-09-24T14:33:44;28.52;;;19.08;;
24407;SDS011;12542;50.924;4.516;2022-09-24T14:36:11;28.45;;;18.67;;
24407;SDS011;12542;50.924;4.516;2022-09-24T14:38:51;28.25;;;18.40;;
24407;SDS011;12542;50.924;4.516;2022-09-24T14:41:29;27.38;;;17.20;;
24407;SDS011;12542;50.924;4.516;2022-09-24T14:43:58;30.92;;;20.58;;
24407;SDS011;12542;50.924;4.516;2022-09-24T14:46:34;26.05;;;18.00;;
24407;SDS011;12542;50.924;4.516;2022-09-24T14:49:17;27.92;;;17.63;;
24407;SDS011;12542;50.924;4.516;2022-09-24T14:51:49;28.70;;;18.50;;
24407;SDS011;12542;50.924;4.516;2022-09-24T14:54:32;28.10;;;18.13;;
24407;SDS011;12542;50.924;4.516;2022-09-24T14:59:41;32.35;;;18.65;;
24407;SDS011;12542;50.924;4.516;2022-09-24T15:05:01;25.60;;;17.65;;
24407;SDS011;12542;50.924;4.516;2022-09-24T15:07:29;28.08;;;17.42;;
24407;SDS011;12542;50.924;4.516;2022-09-24T15:09:57;26.63;;;17.60;;
24407;SDS011;12542;50.924;4.516;2022-09-24T15:12:26;27.10;;;17.38;;
24407;SDS011;12542;50.924;4.516;2022-09-24T15:17:28;25.63;;;16.35;;
24407;SDS011;12542;50.924;4.516;2022-09-24T15:19:55;24.10;;;16.42;;
24407;SDS011;12542;50.924;4.516;2022-09-24T15:22:22;25.20;;;15.82;;
24407;SDS011;12542;50.924;4.516;2022-09-24T15:24:50;29.15;;;17.55;;
24407;SDS011;12542;50.924;4.516;2022-09-24T15:27:20;31.60;;;18.20;;
24407;SDS011;12542;50.924;4.516;2022-09-24T15:29:47;27.13;;;17.67;;
24407;SDS011;12542;50.924;4.516;2022-09-24T15:32:15;27.88;;;17.27;;
24407;SDS011;12542;50.924;4.516;2022-09-24T15:34:43;24.77;;;16.08;;
24407;SDS011;12542;50.924;4.516;2022-09-24T15:37:13;26.30;;;16.75;;
24407;SDS011;12542;50.924;4.516;2022-09-24T15:39:41;28.23;;;17.25;;
24407;SDS011;12542;50.924;4.516;2022-09-24T15:42:13;27.13;;;16.73;;
24407;SDS011;12542;50.924;4.516;2022-09-24T15:44:49;26.67;;;16.33;;
24407;SDS011;12542;50.924;4.516;2022-09-24T15:47:15;25.98;;;16.83;;
24407;SDS011;12542;50.924;4.516;2022-09-24T15:49:43;24.25;;;16.38;;
24407;SDS011;12542;50.924;4.516;2022-09-24T15:52:13;24.20;;;15.70;;
24407;SDS011;12542;50.924;4.516;2022-09-24T15:54:57;25.52;;;15.57;;
24407;SDS011;12542;50.924;4.516;2022-09-24T15:57:26;23.60;;;14.73;;
24407;SDS011;12542;50.924;4.516;2022-09-24T15:59:52;24.33;;;13.82;;
24407;SDS011;12542;50.924;4.516;2022-09-24T16:02:22;18.67;;;13.50;;
24407;SDS011;12542;50.924;4.516;2022-09-24T16:04:56;20.55;;;13.65;;
24407;SDS011;12542;50.924;4.516;2022-09-24T16:07:25;23.40;;;14.40;;
24407;SDS011;12542;50.924;4.516;2022-09-24T16:09:51;24.77;;;13.88;;
24407;SDS011;12542;50.924;4.516;2022-09-24T16:12:22;20.92;;;13.52;;
24407;SDS011;12542;50.924;4.516;2022-09-24T16:14:54;21.67;;;13.75;;
24407;SDS011;12542;50.924;4.516;2022-09-24T16:17:23;20.92;;;13.52;;
24407;SDS011;12542;50.924;4.516;2022-09-24T16:19:49;20.88;;;13.45;;
24407;SDS011;12542;50.924;4.516;2022-09-24T16:22:14;21.20;;;13.68;;
24407;SDS011;12542;50.924;4.516;2022-09-24T16:24:40;18.67;;;13.75;;
24407;SDS011;12542;50.924;4.516;2022-09-24T16:27:06;23.75;;;14.70;;
24407;SDS011;12542;50.924;4.516;2022-09-24T16:29:31;23.08;;;13.25;;
24407;SDS011;12542;50.924;4.516;2022-09-24T16:31:57;19.90;;;13.10;;
24407;SDS011;12542;50.924;4.516;2022-09-24T16:34:24;23.25;;;13.45;;
24407;SDS011;12542;50.924;4.516;2022-09-24T16:36:50;19.67;;;12.45;;